If you wish to contribute or participate in the discussions about articles you are invited to join SKYbrary as a registered user

 Actions

Mariscal Estigarribia/Dr. Luis Maria Argaña International Airport

From SKYbrary Wiki

SGME
Airport
ICAO: SGME – IATA: ESG
Summary
Name Mariscal Estigarribia/Dr. Luis Maria Argaña International Airport
Region South America and Caribbean
Territory Paraguay PY.gif
Location Mariscal Estigarribia, Boqueron
Serving Mariscal Estigarribia
Elevation 168.554 m
553 ft
553 ft168.554 m
Type medium airport
Coordinates 22° 2' 41.95" S, 60° 37' 18.10" W
Runways
Designator Length Width Surface ROPS
1/19 3500 m11,482.94 ft
40 m131.234 ft
CON /


METAR
Observation SGME 170900Z 18006KT 9999 SCT027 OVC070 17/15 Q1017
Station Mariscal Estigarribia
Date/Time 17 September 2019 09:00:00
Wind direction 180°
Wind speed 06 kts
Lowest cloud amount scattered clouds
Temperature 17°C
Dew point 15°C
Humidity 88%
QNH 1017 hPa
Weather condition n/a

Maps

Terrain

Loading map...

Airport Layout

Loading map...


Accidents & Serious Incidents at or in vicinity of SGME

None on SKYbrary